sensor_id;sensor_type;location;lat;lon;timestamp;pressure;altitude;pressure_sealevel;temperature;humidity
13800;BME280;6971;50.028;9.258;2023-06-22T00:01:20;99587.97;;;18.04;100.00
13800;BME280;6971;50.028;9.258;2023-06-22T00:06:22;99532.22;;;18.01;100.00
13800;BME280;6971;50.028;9.258;2023-06-22T00:11:22;99472.84;;;18.10;100.00
13800;BME280;6971;50.028;9.258;2023-06-22T00:16:23;99402.34;;;18.34;100.00
13800;BME280;6971;50.028;9.258;2023-06-22T00:21:23;99374.69;;;18.35;100.00
13800;BME280;6971;50.028;9.258;2023-06-22T00:26:24;99395.31;;;18.33;100.00
13800;BME280;6971;50.028;9.258;2023-06-22T00:31:24;99409.53;;;18.44;100.00
13800;BME280;6971;50.028;9.258;2023-06-22T00:36:25;99433.13;;;18.38;100.00
13800;BME280;6971;50.028;9.258;2023-06-22T00:41:25;99447.50;;;18.26;100.00
13800;BME280;6971;50.028;9.258;2023-06-22T00:46:28;99469.69;;;18.26;100.00
13800;BME280;6971;50.028;9.258;2023-06-22T00:51:29;99475.41;;;18.22;100.00
13800;BME280;6971;50.028;9.258;2023-06-22T00:56:29;99481.63;;;18.32;100.00
13800;BME280;6971;50.028;9.258;2023-06-22T01:01:30;99483.03;;;18.26;100.00
13800;BME280;6971;50.028;9.258;2023-06-22T01:06:35;99551.28;;;18.29;100.00
13800;BME280;6971;50.028;9.258;2023-06-22T01:11:42;99589.56;;;18.71;100.00
13800;BME280;6971;50.028;9.258;2023-06-22T01:16:46;99592.50;;;18.68;100.00
13800;BME280;6971;50.028;9.258;2023-06-22T01:21:49;99597.34;;;18.74;100.00
13800;BME280;6971;50.028;9.258;2023-06-22T01:31:56;99728.25;;;18.72;100.00
13800;BME280;6971;50.028;9.258;2023-06-22T01:36:58;99795.13;;;18.92;100.00
13800;BME280;6971;50.028;9.258;2023-06-22T01:42:00;99818.50;;;19.11;100.00
13800;BME280;6971;50.028;9.258;2023-06-22T01:47:01;99820.88;;;19.26;100.00
13800;BME280;6971;50.028;9.258;2023-06-22T01:52:01;99794.81;;;19.18;100.00
13800;BME280;6971;50.028;9.258;2023-06-22T01:57:02;99591.34;;;19.13;100.00
13800;BME280;6971;50.028;9.258;2023-06-22T02:02:09;99649.06;;;19.25;100.00
13800;BME280;6971;50.028;9.258;2023-06-22T02:07:13;99571.97;;;19.21;100.00
13800;BME280;6971;50.028;9.258;2023-06-22T02:12:17;99461.53;;;19.00;100.00
13800;BME280;6971;50.028;9.258;2023-06-22T02:17:18;99423.34;;;19.00;100.00
13800;BME280;6971;50.028;9.258;2023-06-22T02:22:18;99418.81;;;19.00;100.00
13800;BME280;6971;50.028;9.258;2023-06-22T02:27:18;99403.78;;;18.99;100.00
13800;BME280;6971;50.028;9.258;2023-06-22T02:32:19;99405.19;;;18.94;100.00
13800;BME280;6971;50.028;9.258;2023-06-22T02:37:19;99399.44;;;18.98;100.00
13800;BME280;6971;50.028;9.258;2023-06-22T02:42:19;99430.63;;;18.88;100.00
13800;BME280;6971;50.028;9.258;2023-06-22T02:47:22;99468.56;;;18.91;100.00
13800;BME280;6971;50.028;9.258;2023-06-22T02:52:22;99474.47;;;18.95;100.00
13800;BME280;6971;50.028;9.258;2023-06-22T02:57:22;99483.84;;;18.89;100.00
13800;BME280;6971;50.028;9.258;2023-06-22T03:02:23;99478.09;;;18.84;100.00
13800;BME280;6971;50.028;9.258;2023-06-22T03:07:23;99489.19;;;18.79;100.00
13800;BME280;6971;50.028;9.258;2023-06-22T03:12:23;99485.75;;;18.68;100.00
13800;BME280;6971;50.028;9.258;2023-06-22T03:17:24;99485.78;;;18.77;100.00
13800;BME280;6971;50.028;9.258;2023-06-22T03:22:24;99508.94;;;18.67;100.00
13800;BME280;6971;50.028;9.258;2023-06-22T03:27:25;99506.47;;;18.54;100.00
13800;BME280;6971;50.028;9.258;2023-06-22T03:32:25;99505.59;;;18.44;100.00
13800;BME280;6971;50.028;9.258;2023-06-22T03:37:28;99505.31;;;18.25;100.00
13800;BME280;6971;50.028;9.258;2023-06-22T03:42:29;99519.19;;;18.19;100.00
13800;BME280;6971;50.028;9.258;2023-06-22T03:47:29;99518.34;;;18.19;100.00
13800;BME280;6971;50.028;9.258;2023-06-22T03:52:29;99514.75;;;18.30;100.00
13800;BME280;6971;50.028;9.258;2023-06-22T03:57:30;99502.75;;;18.14;100.00
13800;BME280;6971;50.028;9.258;2023-06-22T04:02:30;99495.84;;;18.11;100.00
13800;BME280;6971;50.028;9.258;2023-06-22T04:07:31;99500.41;;;18.21;100.00
13800;BME280;6971;50.028;9.258;2023-06-22T04:12:32;99505.47;;;18.24;100.00
13800;BME280;6971;50.028;9.258;2023-06-22T04:17:33;99502.41;;;18.29;100.00
13800;BME280;6971;50.028;9.258;2023-06-22T04:22:33;99500.38;;;18.42;100.00
13800;BME280;6971;50.028;9.258;2023-06-22T04:27:34;99494.84;;;18.34;100.00
13800;BME280;6971;50.028;9.258;2023-06-22T04:32:40;99487.34;;;18.49;100.00
13800;BME280;6971;50.028;9.258;2023-06-22T04:37:41;99492.19;;;18.55;100.00
13800;BME280;6971;50.028;9.258;2023-06-22T04:42:41;99490.25;;;18.67;100.00
13800;BME280;6971;50.028;9.258;2023-06-22T04:47:52;99475.38;;;18.74;100.00
13800;BME280;6971;50.028;9.258;2023-06-22T04:52:52;99471.75;;;18.85;100.00
13800;BME280;6971;50.028;9.258;2023-06-22T04:57:52;99466.53;;;19.05;100.00
13800;BME280;6971;50.028;9.258;2023-06-22T05:02:53;99467.66;;;19.12;100.00
13800;BME280;6971;50.028;9.258;2023-06-22T05:07:56;99463.59;;;19.18;100.00
13800;BME280;6971;50.028;9.258;2023-06-22T05:12:59;99472.75;;;19.25;100.00
13800;BME280;6971;50.028;9.258;2023-06-22T05:18:00;99461.50;;;19.22;100.00
13800;BME280;6971;50.028;9.258;2023-06-22T05:23:05;99457.56;;;19.26;100.00
13800;BME280;6971;50.028;9.258;2023-06-22T05:28:05;99464.00;;;19.23;100.00
13800;BME280;6971;50.028;9.258;2023-06-22T05:33:11;99458.97;;;19.30;100.00
13800;BME280;6971;50.028;9.258;2023-06-22T05:38:11;99459.81;;;19.40;100.00
13800;BME280;6971;50.028;9.258;2023-06-22T05:43:11;99458.25;;;19.48;100.00
13800;BME280;6971;50.028;9.258;2023-06-22T05:48:12;99458.25;;;19.48;100.00
13800;BME280;6971;50.028;9.258;2023-06-22T05:53:12;99451.94;;;19.59;100.00
13800;BME280;6971;50.028;9.258;2023-06-22T05:58:13;99439.28;;;19.70;100.00
13800;BME280;6971;50.028;9.258;2023-06-22T06:03:13;99444.06;;;19.77;100.00
13800;BME280;6971;50.028;9.258;2023-06-22T06:08:16;99444.06;;;19.77;100.00
13800;BME280;6971;50.028;9.258;2023-06-22T06:13:17;99445.00;;;19.95;100.00
13800;BME280;6971;50.028;9.258;2023-06-22T06:18:17;99442.22;;;20.07;100.00
13800;BME280;6971;50.028;9.258;2023-06-22T06:23:18;99434.47;;;20.14;100.00
13800;BME280;6971;50.028;9.258;2023-06-22T06:28:18;99424.41;;;20.64;100.00
13800;BME280;6971;50.028;9.258;2023-06-22T06:33:21;99422.28;;;20.95;100.00
13800;BME280;6971;50.028;9.258;2023-06-22T06:38:21;99417.81;;;20.86;100.00
13800;BME280;6971;50.028;9.258;2023-06-22T06:43:22;99418.31;;;21.18;100.00
13800;BME280;6971;50.028;9.258;2023-06-22T06:48:23;99407.53;;;21.28;100.00
13800;BME280;6971;50.028;9.258;2023-06-22T06:53:23;99401.09;;;21.57;100.00
13800;BME280;6971;50.028;9.258;2023-06-22T06:58:23;99396.25;;;22.05;100.00
13800;BME280;6971;50.028;9.258;2023-06-22T07:03:24;99396.44;;;22.47;100.00
13800;BME280;6971;50.028;9.258;2023-06-22T07:08:24;99406.88;;;22.93;96.86
13800;BME280;6971;50.028;9.258;2023-06-22T07:13:24;99415.16;;;23.08;95.00
13800;BME280;6971;50.028;9.258;2023-06-22T07:18:27;99417.00;;;23.24;91.56
13800;BME280;6971;50.028;9.258;2023-06-22T07:23:27;99403.47;;;23.42;90.80
13800;BME280;6971;50.028;9.258;2023-06-22T07:28:28;99402.94;;;23.64;89.41
13800;BME280;6971;50.028;9.258;2023-06-22T07:33:31;99405.31;;;23.75;88.14
13800;BME280;6971;50.028;9.258;2023-06-22T07:38:31;99396.69;;;24.05;86.01
13800;BME280;6971;50.028;9.258;2023-06-22T07:43:31;99397.31;;;24.23;88.44
13800;BME280;6971;50.028;9.258;2023-06-22T07:48:36;99397.44;;;24.38;84.12
13800;BME280;6971;50.028;9.258;2023-06-22T07:53:37;99396.13;;;25.06;80.23
13800;BME280;6971;50.028;9.258;2023-06-22T07:58:38;99400.44;;;26.01;74.71
13800;BME280;6971;50.028;9.258;2023-06-22T08:03:38;99387.59;;;26.33;72.12
13800;BME280;6971;50.028;9.258;2023-06-22T08:08:39;99391.09;;;26.64;70.82
13800;BME280;6971;50.028;9.258;2023-06-22T08:13:40;99381.84;;;27.10;65.63
13800;BME280;6971;50.028;9.258;2023-06-22T08:18:40;99392.16;;;26.48;71.20
13800;BME280;6971;50.028;9.258;2023-06-22T08:23:40;99388.31;;;27.09;68.42
13800;BME280;6971;50.028;9.258;2023-06-22T08:28:41;99406.06;;;27.18;69.81
13800;BME280;6971;50.028;9.258;2023-06-22T08:33:41;99404.66;;;27.95;61.83
13800;BME280;6971;50.028;9.258;2023-06-22T08:38:43;99408.84;;;27.69;63.35
13800;BME280;6971;50.028;9.258;2023-06-22T08:43:44;99419.69;;;28.68;60.21
13800;BME280;6971;50.028;9.258;2023-06-22T08:48:45;99407.69;;;28.91;58.33
13800;BME280;6971;50.028;9.258;2023-06-22T08:53:45;99396.50;;;29.41;57.59
13800;BME280;6971;50.028;9.258;2023-06-22T08:58:46;99390.03;;;29.42;57.40
13800;BME280;6971;50.028;9.258;2023-06-22T09:03:46;99391.50;;;29.86;56.26
13800;BME280;6971;50.028;9.258;2023-06-22T09:08:54;99387.28;;;30.10;57.08
13800;BME280;6971;50.028;9.258;2023-06-22T09:13:54;99387.56;;;30.61;51.79
13800;BME280;6971;50.028;9.258;2023-06-22T09:18:55;99396.06;;;30.05;54.76
13800;BME280;6971;50.028;9.258;2023-06-22T09:23:55;99380.75;;;30.38;53.09
13800;BME280;6971;50.028;9.258;2023-06-22T09:28:55;99386.81;;;30.33;54.55
13800;BME280;6971;50.028;9.258;2023-06-22T09:33:56;99374.94;;;30.21;54.88
13800;BME280;6971;50.028;9.258;2023-06-22T09:38:56;99371.38;;;30.27;58.32
13800;BME280;6971;50.028;9.258;2023-06-22T09:43:58;99366.38;;;30.70;52.88
13800;BME280;6971;50.028;9.258;2023-06-22T09:48:59;99367.06;;;30.58;52.10
13800;BME280;6971;50.028;9.258;2023-06-22T09:53:59;99361.91;;;30.89;51.34
13800;BME280;6971;50.028;9.258;2023-06-22T09:59:01;99336.25;;;30.32;53.01
13800;BME280;6971;50.028;9.258;2023-06-22T10:04:02;99349.09;;;30.57;52.42
13800;BME280;6971;50.028;9.258;2023-06-22T10:09:03;99349.94;;;30.51;51.84
13800;BME280;6971;50.028;9.258;2023-06-22T10:14:03;99347.16;;;30.26;52.58
13800;BME280;6971;50.028;9.258;2023-06-22T10:19:04;99346.50;;;31.08;51.54
13800;BME280;6971;50.028;9.258;2023-06-22T10:24:04;99337.69;;;31.64;48.85
13800;BME280;6971;50.028;9.258;2023-06-22T10:29:08;99331.59;;;31.69;48.75
13800;BME280;6971;50.028;9.258;2023-06-22T10:34:09;99317.91;;;30.99;50.19
13800;BME280;6971;50.028;9.258;2023-06-22T10:39:09;99301.47;;;31.63;48.52
13800;BME280;6971;50.028;9.258;2023-06-22T10:44:09;99282.03;;;31.78;48.78
13800;BME280;6971;50.028;9.258;2023-06-22T10:49:10;99266.63;;;31.91;47.94
13800;BME280;6971;50.028;9.258;2023-06-22T10:54:11;99259.38;;;32.65;46.86
13800;BME280;6971;50.028;9.258;2023-06-22T10:59:13;99274.78;;;32.59;46.75
13800;BME280;6971;50.028;9.258;2023-06-22T11:04:14;99258.84;;;32.87;45.98
13800;BME280;6971;50.028;9.258;2023-06-22T11:09:15;99248.16;;;32.12;47.09
13800;BME280;6971;50.028;9.258;2023-06-22T11:14:20;99247.69;;;31.77;47.97
13800;BME280;6971;50.028;9.258;2023-06-22T11:19:21;99233.16;;;31.02;50.13
13800;BME280;6971;50.028;9.258;2023-06-22T11:24:22;99224.31;;;30.81;51.50
13800;BME280;6971;50.028;9.258;2023-06-22T11:29:22;99225.69;;;31.16;51.08
13800;BME280;6971;50.028;9.258;2023-06-22T11:34:22;99214.94;;;31.65;49.11
13800;BME280;6971;50.028;9.258;2023-06-22T11:39:23;99196.13;;;30.69;52.79
13800;BME280;6971;50.028;9.258;2023-06-22T11:44:23;99180.88;;;29.96;53.29
13800;BME280;6971;50.028;9.258;2023-06-22T11:49:24;99186.63;;;30.27;53.47
13800;BME280;6971;50.028;9.258;2023-06-22T11:54:24;99204.28;;;31.64;50.07
13800;BME280;6971;50.028;9.258;2023-06-22T11:59:24;99176.06;;;31.77;48.82
13800;BME280;6971;50.028;9.258;2023-06-22T12:04:25;99171.94;;;32.05;49.08
13800;BME280;6971;50.028;9.258;2023-06-22T12:09:25;99166.25;;;31.57;50.17
13800;BME280;6971;50.028;9.258;2023-06-22T12:14:25;99162.00;;;31.61;50.63
13800;BME280;6971;50.028;9.258;2023-06-22T12:19:26;99151.56;;;31.21;51.42
13800;BME280;6971;50.028;9.258;2023-06-22T12:24:26;99147.47;;;32.60;48.82
13800;BME280;6971;50.028;9.258;2023-06-22T12:29:26;99148.34;;;31.80;49.16
13800;BME280;6971;50.028;9.258;2023-06-22T12:34:27;99142.47;;;31.83;49.81
13800;BME280;6971;50.028;9.258;2023-06-22T12:39:27;99137.41;;;32.17;48.59
13800;BME280;6971;50.028;9.258;2023-06-22T12:44:27;99130.34;;;32.40;48.23
13800;BME280;6971;50.028;9.258;2023-06-22T12:49:28;99136.28;;;31.20;49.91
13800;BME280;6971;50.028;9.258;2023-06-22T12:54:29;99130.47;;;32.03;47.38
13800;BME280;6971;50.028;9.258;2023-06-22T12:59:32;99139.59;;;31.78;47.00
13800;BME280;6971;50.028;9.258;2023-06-22T13:04:32;99125.38;;;31.76;47.93
13800;BME280;6971;50.028;9.258;2023-06-22T13:09:32;99139.06;;;31.69;48.04
13800;BME280;6971;50.028;9.258;2023-06-22T13:14:34;99122.19;;;31.48;48.63
13800;BME280;6971;50.028;9.258;2023-06-22T13:19:35;99125.13;;;30.84;49.49
13800;BME280;6971;50.028;9.258;2023-06-22T13:24:35;99133.59;;;30.69;49.49
13800;BME280;6971;50.028;9.258;2023-06-22T13:29:36;99137.75;;;30.97;49.15
13800;BME280;6971;50.028;9.258;2023-06-22T13:34:36;99130.19;;;30.80;49.68
13800;BME280;6971;50.028;9.258;2023-06-22T13:39:36;99117.91;;;31.15;50.11
13800;BME280;6971;50.028;9.258;2023-06-22T13:44:37;99107.88;;;31.34;48.46
13800;BME280;6971;50.028;9.258;2023-06-22T13:49:37;99098.19;;;31.57;48.17
13800;BME280;6971;50.028;9.258;2023-06-22T13:54:38;99083.13;;;31.85;47.15
13800;BME280;6971;50.028;9.258;2023-06-22T13:59:38;99079.88;;;31.27;48.33
13800;BME280;6971;50.028;9.258;2023-06-22T14:04:38;99069.44;;;31.61;48.51
13800;BME280;6971;50.028;9.258;2023-06-22T14:09:39;99049.91;;;31.95;48.06
13800;BME280;6971;50.028;9.258;2023-06-22T14:14:39;99055.00;;;31.91;48.98
13800;BME280;6971;50.028;9.258;2023-06-22T14:19:39;99049.78;;;31.59;48.71
13800;BME280;6971;50.028;9.258;2023-06-22T14:24:40;99035.03;;;31.79;47.95
13800;BME280;6971;50.028;9.258;2023-06-22T14:29:40;99037.59;;;31.31;48.99
13800;BME280;6971;50.028;9.258;2023-06-22T14:34:41;99015.19;;;31.48;48.23
13800;BME280;6971;50.028;9.258;2023-06-22T14:39:41;99001.38;;;32.04;47.73
13800;BME280;6971;50.028;9.258;2023-06-22T14:44:44;99002.78;;;31.95;47.90
13800;BME280;6971;50.028;9.258;2023-06-22T14:49:45;98987.97;;;31.90;47.26
13800;BME280;6971;50.028;9.258;2023-06-22T14:54:45;98977.44;;;32.30;47.26
13800;BME280;6971;50.028;9.258;2023-06-22T14:59:46;98964.44;;;32.08;46.03
13800;BME280;6971;50.028;9.258;2023-06-22T15:04:47;98968.69;;;32.28;45.17
13800;BME280;6971;50.028;9.258;2023-06-22T15:09:47;98966.66;;;32.23;44.10
13800;BME280;6971;50.028;9.258;2023-06-22T15:14:48;98962.28;;;32.10;44.66
13800;BME280;6971;50.028;9.258;2023-06-22T15:19:48;98940.13;;;31.21;44.31
13800;BME280;6971;50.028;9.258;2023-06-22T15:24:48;98903.34;;;30.88;46.61
13800;BME280;6971;50.028;9.258;2023-06-22T15:29:49;98905.13;;;31.56;46.08
13800;BME280;6971;50.028;9.258;2023-06-22T15:34:49;98908.59;;;31.75;47.69
13800;BME280;6971;50.028;9.258;2023-06-22T15:39:53;98918.03;;;31.48;47.81
13800;BME280;6971;50.028;9.258;2023-06-22T15:44:56;98928.72;;;30.63;50.90
13800;BME280;6971;50.028;9.258;2023-06-22T15:49:56;98942.09;;;30.27;52.43
13800;BME280;6971;50.028;9.258;2023-06-22T15:54:56;98941.31;;;30.20;53.79
13800;BME280;6971;50.028;9.258;2023-06-22T16:00:00;98940.53;;;30.13;58.54
13800;BME280;6971;50.028;9.258;2023-06-22T16:05:01;98917.66;;;29.44;61.84
13800;BME280;6971;50.028;9.258;2023-06-22T16:10:02;98914.56;;;29.01;65.45
13800;BME280;6971;50.028;9.258;2023-06-22T16:15:03;98881.19;;;28.48;66.88
13800;BME280;6971;50.028;9.258;2023-06-22T16:20:05;98874.69;;;28.63;65.56
13800;BME280;6971;50.028;9.258;2023-06-22T16:25:06;98868.75;;;28.79;64.78
13800;BME280;6971;50.028;9.258;2023-06-22T16:30:07;98880.59;;;28.99;58.66
13800;BME280;6971;50.028;9.258;2023-06-22T16:35:08;98906.31;;;28.76;59.73
13800;BME280;6971;50.028;9.258;2023-06-22T16:40:09;98942.56;;;28.95;60.15
13800;BME280;6971;50.028;9.258;2023-06-22T16:45:14;98969.91;;;28.80;56.60
13800;BME280;6971;50.028;9.258;2023-06-22T16:50:15;98971.78;;;28.73;53.41
13800;BME280;6971;50.028;9.258;2023-06-22T16:55:18;98975.59;;;28.58;53.70
13800;BME280;6971;50.028;9.258;2023-06-22T17:00:20;98970.19;;;28.58;52.64
13800;BME280;6971;50.028;9.258;2023-06-22T17:05:22;98958.97;;;28.41;52.26
13800;BME280;6971;50.028;9.258;2023-06-22T17:10:22;98932.28;;;28.38;52.87
13800;BME280;6971;50.028;9.258;2023-06-22T17:15:24;98957.69;;;28.57;51.64
13800;BME280;6971;50.028;9.258;2023-06-22T17:20:27;98947.50;;;28.39;52.29
13800;BME280;6971;50.028;9.258;2023-06-22T17:25:28;98945.22;;;28.22;53.01
13800;BME280;6971;50.028;9.258;2023-06-22T17:30:32;98950.66;;;28.09;53.79
13800;BME280;6971;50.028;9.258;2023-06-22T17:35:44;98955.63;;;28.12;53.76
13800;BME280;6971;50.028;9.258;2023-06-22T17:40:45;98963.97;;;28.04;54.25
13800;BME280;6971;50.028;9.258;2023-06-22T17:45:45;98966.47;;;27.98;55.34
13800;BME280;6971;50.028;9.258;2023-06-22T17:50:46;98961.44;;;27.61;56.06
13800;BME280;6971;50.028;9.258;2023-06-22T17:55:46;98954.75;;;27.50;57.16
13800;BME280;6971;50.028;9.258;2023-06-22T18:00:47;98964.31;;;27.46;57.76
13800;BME280;6971;50.028;9.258;2023-06-22T18:05:48;98974.47;;;26.82;60.32
13800;BME280;6971;50.028;9.258;2023-06-22T18:10:48;98985.25;;;26.75;60.79
13800;BME280;6971;50.028;9.258;2023-06-22T18:15:49;98988.97;;;26.67;61.33
13800;BME280;6971;50.028;9.258;2023-06-22T18:20:51;98987.47;;;26.58;61.75
13800;BME280;6971;50.028;9.258;2023-06-22T18:25:52;98980.72;;;26.18;60.90
13800;BME280;6971;50.028;9.258;2023-06-22T18:30:53;98996.50;;;26.43;61.87
13800;BME280;6971;50.028;9.258;2023-06-22T18:35:54;98982.53;;;26.11;63.71
13800;BME280;6971;50.028;9.258;2023-06-22T18:40:56;98984.03;;;25.92;64.76
13800;BME280;6971;50.028;9.258;2023-06-22T18:46:29;98976.66;;;25.79;66.27
13800;BME280;6971;50.028;9.258;2023-06-22T18:51:29;98964.66;;;25.45;68.25
13800;BME280;6971;50.028;9.258;2023-06-22T18:56:29;98961.56;;;25.26;70.78
13800;BME280;6971;50.028;9.258;2023-06-22T19:01:30;98951.03;;;24.79;77.88
13800;BME280;6971;50.028;9.258;2023-06-22T19:11:49;98912.69;;;24.32;85.59
13800;BME280;6971;50.028;9.258;2023-06-22T19:16:59;98897.31;;;24.25;82.98
13800;BME280;6971;50.028;9.258;2023-06-22T19:22:00;98894.94;;;24.07;84.75
13800;BME280;6971;50.028;9.258;2023-06-22T19:27:01;98899.31;;;23.70;88.33
13800;BME280;6971;50.028;9.258;2023-06-22T19:32:01;98916.63;;;23.52;91.18
13800;BME280;6971;50.028;9.258;2023-06-22T19:37:13;98924.28;;;23.32;94.11
13800;BME280;6971;50.028;9.258;2023-06-22T19:42:13;98940.16;;;23.18;98.71
13800;BME280;6971;50.028;9.258;2023-06-22T19:47:14;98948.66;;;23.30;95.41
13800;BME280;6971;50.028;9.258;2023-06-22T19:52:15;98933.50;;;23.06;95.62
13800;BME280;6971;50.028;9.258;2023-06-22T19:57:15;98941.03;;;23.11;91.38
13800;BME280;6971;50.028;9.258;2023-06-22T20:02:16;98945.16;;;23.21;79.48
13800;BME280;6971;50.028;9.258;2023-06-22T20:07:16;98958.09;;;23.26;88.19
13800;BME280;6971;50.028;9.258;2023-06-22T20:12:23;98952.63;;;23.11;94.88
13800;BME280;6971;50.028;9.258;2023-06-22T20:17:28;98957.06;;;22.95;92.89
13800;BME280;6971;50.028;9.258;2023-06-22T20:22:41;98946.16;;;22.89;88.17
13800;BME280;6971;50.028;9.258;2023-06-22T20:27:42;98941.31;;;23.16;83.98
13800;BME280;6971;50.028;9.258;2023-06-22T20:32:51;98935.28;;;23.69;69.33
13800;BME280;6971;50.028;9.258;2023-06-22T20:37:51;98934.81;;;24.27;64.56
13800;BME280;6971;50.028;9.258;2023-06-22T20:42:56;98945.38;;;24.59;63.19
13800;BME280;6971;50.028;9.258;2023-06-22T20:47:58;98966.47;;;24.70;62.96
13800;BME280;6971;50.028;9.258;2023-06-22T20:53:03;98974.63;;;24.77;63.05
13800;BME280;6971;50.028;9.258;2023-06-22T20:58:04;98970.81;;;24.71;63.30
13800;BME280;6971;50.028;9.258;2023-06-22T21:03:08;98982.72;;;24.62;63.11
13800;BME280;6971;50.028;9.258;2023-06-22T21:08:10;99000.72;;;24.46;63.50
13800;BME280;6971;50.028;9.258;2023-06-22T21:13:11;98998.59;;;24.42;64.08
13800;BME280;6971;50.028;9.258;2023-06-22T21:18:11;99021.72;;;24.12;65.96
13800;BME280;6971;50.028;9.258;2023-06-22T21:23:11;99045.16;;;23.80;67.43
13800;BME280;6971;50.028;9.258;2023-06-22T21:28:12;99049.72;;;23.48;69.32
13800;BME280;6971;50.028;9.258;2023-06-22T21:33:12;99061.53;;;22.82;71.86
13800;BME280;6971;50.028;9.258;2023-06-22T21:38:13;99077.16;;;22.53;73.35
13800;BME280;6971;50.028;9.258;2023-06-22T21:43:13;99107.19;;;22.40;74.06
13800;BME280;6971;50.028;9.258;2023-06-22T21:48:14;99139.91;;;22.11;75.77
13800;BME280;6971;50.028;9.258;2023-06-22T21:53:14;99150.25;;;21.97;77.00
13800;BME280;6971;50.028;9.258;2023-06-22T21:58:14;99163.72;;;21.71;78.54
13800;BME280;6971;50.028;9.258;2023-06-22T22:03:15;99163.38;;;21.65;79.13
13800;BME280;6971;50.028;9.258;2023-06-22T22:08:16;99178.00;;;21.45;78.56
13800;BME280;6971;50.028;9.258;2023-06-22T22:13:17;99170.72;;;21.55;78.80
13800;BME280;6971;50.028;9.258;2023-06-22T22:18:18;99171.88;;;21.52;78.66
13800;BME280;6971;50.028;9.258;2023-06-22T22:23:18;99170.09;;;21.35;79.14
13800;BME280;6971;50.028;9.258;2023-06-22T22:28:19;99169.06;;;21.28;79.49
13800;BME280;6971;50.028;9.258;2023-06-22T22:33:20;99172.44;;;21.30;79.70
13800;BME280;6971;50.028;9.258;2023-06-22T22:38:21;99155.97;;;21.24;80.29
13800;BME280;6971;50.028;9.258;2023-06-22T22:43:21;99135.56;;;21.32;79.68
13800;BME280;6971;50.028;9.258;2023-06-22T22:48:21;99125.38;;;21.00;81.46
13800;BME280;6971;50.028;9.258;2023-06-22T22:53:22;99116.16;;;21.03;82.08
13800;BME280;6971;50.028;9.258;2023-06-22T22:58:22;99128.75;;;21.11;81.92
13800;BME280;6971;50.028;9.258;2023-06-22T23:03:23;99115.91;;;20.88;85.25
13800;BME280;6971;50.028;9.258;2023-06-22T23:08:23;99126.25;;;20.65;86.66
13800;BME280;6971;50.028;9.258;2023-06-22T23:13:23;99115.19;;;20.59;87.57
13800;BME280;6971;50.028;9.258;2023-06-22T23:18:24;99116.97;;;20.32;89.93
13800;BME280;6971;50.028;9.258;2023-06-22T23:23:24;99113.06;;;20.27;92.02
13800;BME280;6971;50.028;9.258;2023-06-22T23:28:25;99113.06;;;20.27;91.60
13800;BME280;6971;50.028;9.258;2023-06-22T23:33:27;99121.81;;;20.29;91.74
13800;BME280;6971;50.028;9.258;2023-06-22T23:38:28;99128.16;;;20.28;92.41
13800;BME280;6971;50.028;9.258;2023-06-22T23:43:28;99137.91;;;20.19;91.49
13800;BME280;6971;50.028;9.258;2023-06-22T23:48:29;99125.53;;;20.18;90.31
13800;BME280;6971;50.028;9.258;2023-06-22T23:53:29;99138.34;;;19.96;92.24
13800;BME280;6971;50.028;9.258;2023-06-22T23:58:29;99160.31;;;19.90;93.28
